Time;durP1;ratioP1;P1;durP2;ratioP2;P2;SDS_P1;SDS_P2;PMS_P1;PMS_P2;Temp;Humidity;BMP_temperature;BMP_pressure;BME280_temperature;BME280_humidity;BME280_pressure;Samples;Min_cycle;Max_cycle;Signal;HPM_P1;HPM_P2
2024/03/21 00:00:13;;;;;;;2.65;2.45;;;;;;;22.38;41.33;101911.41;5019508;28;20175;-72
2024/03/21 00:02:40;;;;;;;2.60;2.40;;;;;;;22.36;41.37;101908.94;5026628;28;20045;-72
2024/03/21 00:05:07;;;;;;;3.30;2.55;;;;;;;22.32;41.23;101899.66;5024548;28;20160;-72
2024/03/21 00:07:33;;;;;;;3.08;2.40;;;;;;;22.30;41.38;101904.31;5022234;28;20045;-72
2024/03/21 00:09:59;;;;;;;2.58;2.38;;;;;;;22.34;41.27;101900.31;5022574;28;20056;-72
2024/03/21 00:12:25;;;;;;;2.47;2.28;;;;;;;22.30;41.23;101894.53;5015255;28;20034;-72
2024/03/21 00:14:50;;;;;;;2.60;2.40;;;;;;;22.33;41.12;101900.50;5022823;28;20106;-72
2024/03/21 00:17:16;;;;;;;2.85;2.47;;;;;;;22.28;41.36;101903.66;5026170;28;20037;-72
2024/03/21 00:19:41;;;;;;;2.67;2.38;;;;;;;22.27;41.28;101899.38;5022986;28;20049;-72
2024/03/21 00:22:07;;;;;;;2.47;2.28;;;;;;;22.29;41.60;101907.97;5021098;28;20049;-72
2024/03/21 00:24:32;;;;;;;2.67;2.20;;;;;;;22.28;41.22;101903.66;5030634;28;20050;-72
2024/03/21 00:26:58;;;;;;;2.58;2.38;;;;;;;22.25;41.40;101894.19;5024300;28;20037;-72
2024/03/21 00:29:24;;;;;;;2.53;2.33;;;;;;;22.23;41.57;101885.59;5025858;28;20041;-71
2024/03/21 00:31:53;;;;;;;2.90;2.35;;;;;;;22.01;41.23;101849.13;5020058;28;20045;-72
2024/03/21 00:34:18;;;;;;;2.50;2.30;;;;;;;22.18;41.56;101872.00;5026051;28;20048;-72
2024/03/21 00:36:44;;;;;;;2.40;2.20;;;;;;;22.22;41.61;101883.09;5022717;28;20042;-73
2024/03/21 00:39:18;;;;;;;2.60;2.30;;;;;;;22.23;41.52;101890.88;5024425;28;20111;-72
2024/03/21 00:41:44;;;;;;;2.40;2.20;;;;;;;22.23;41.32;101890.88;5021254;28;20856;-73
2024/03/21 00:44:09;;;;;;;2.35;2.15;;;;;;;22.21;41.21;101907.97;5033705;28;20045;-72
2024/03/21 00:46:35;;;;;;;2.92;2.15;;;;;;;22.23;41.21;101912.13;5020493;28;20042;-71
2024/03/21 00:49:00;;;;;;;2.88;2.20;;;;;;;22.23;41.49;101921.91;5022533;28;20091;-72
2024/03/21 00:51:26;;;;;;;2.38;2.20;;;;;;;22.15;41.51;101928.06;5020725;28;20033;-72
2024/03/21 00:53:51;;;;;;;2.15;1.95;;;;;;;22.15;41.34;101927.25;5024684;28;20054;-71
2024/03/21 00:56:17;;;;;;;3.75;2.33;;;;;;;22.19;41.46;101928.56;5028652;28;20052;-72
2024/03/21 00:58:43;;;;;;;2.75;2.40;;;;;;;22.15;41.62;101930.72;5024033;28;20406;-73
2024/03/21 01:01:09;;;;;;;2.63;2.38;;;;;;;22.13;41.48;101924.75;5029847;28;20038;-72
2024/03/21 01:03:34;;;;;;;2.30;2.10;;;;;;;22.15;41.36;101916.63;5024003;28;20037;-73
2024/03/21 01:06:01;;;;;;;2.40;2.20;;;;;;;22.15;41.43;101924.59;5024147;28;20041;-72
2024/03/21 01:08:27;;;;;;;2.20;2.00;;;;;;;22.12;41.30;101932.88;5028457;28;20037;-73
2024/03/21 01:10:52;;;;;;;2.20;2.00;;;;;;;22.10;41.58;101929.56;5009773;28;20116;-72
2024/03/21 01:13:19;;;;;;;2.05;1.95;;;;;;;22.11;41.59;101928.56;5022135;28;20105;-72
2024/03/21 01:15:45;;;;;;;2.33;2.13;;;;;;;22.10;41.38;101926.94;5027880;28;20114;-72
2024/03/21 01:18:10;;;;;;;2.22;2.05;;;;;;;22.09;41.51;101926.09;5025615;28;20045;-72
2024/03/21 01:20:40;;;;;;;2.00;1.90;;;;;;;22.05;41.42;101922.09;5023768;28;20038;-72
2024/03/21 01:23:05;;;;;;;2.40;2.10;;;;;;;22.11;41.38;101932.06;5029201;28;20514;-73
2024/03/21 01:25:32;;;;;;;2.63;2.00;;;;;;;22.05;41.30;101929.22;5022439;28;20125;-72
2024/03/21 01:27:58;;;;;;;2.33;2.10;;;;;;;22.08;41.36;101940.31;5037793;28;20053;-72
2024/03/21 01:30:24;;;;;;;2.08;1.88;;;;;;;22.06;41.70;101937.00;5023725;28;20450;-73
2024/03/21 01:32:50;;;;;;;2.03;1.92;;;;;;;22.06;41.50;101931.72;5026559;28;20045;-71
2024/03/21 01:35:15;;;;;;;2.15;1.95;;;;;;;22.06;41.67;101934.38;5021630;28;20461;-72
2024/03/21 01:37:40;;;;;;;2.30;2.10;;;;;;;22.03;41.32;101942.63;5023758;28;20069;-72
2024/03/21 01:40:08;;;;;;;2.33;2.13;;;;;;;22.04;41.71;101936.31;5029663;28;20037;-72
2024/03/21 01:42:33;;;;;;;2.45;1.95;;;;;;;22.03;41.42;101932.84;5022485;28;20037;-73
2024/03/21 01:45:01;;;;;;;1.85;1.75;;;;;;;22.01;41.66;101929.53;5033133;28;20531;-71
2024/03/21 01:47:27;;;;;;;3.00;2.05;;;;;;;21.94;41.28;101923.25;5025324;28;20040;-72
2024/03/21 01:49:54;;;;;;;2.22;2.03;;;;;;;21.99;41.74;101930.69;5032116;28;20060;-71
2024/03/21 01:52:20;;;;;;;2.08;1.88;;;;;;;21.99;41.35;101922.75;5024055;28;20734;-72
2024/03/21 01:54:46;;;;;;;2.38;2.10;;;;;;;21.99;41.23;101923.56;5027033;28;20052;-72
2024/03/21 01:57:12;;;;;;;2.05;1.85;;;;;;;22.00;41.52;101916.44;5020051;28;20037;-72
2024/03/21 01:59:37;;;;;;;2.10;1.90;;;;;;;21.95;41.90;101921.44;5022164;28;20060;-72
2024/03/21 02:02:05;;;;;;;2.63;2.00;;;;;;;21.97;41.73;101930.88;5019366;28;20046;-72
2024/03/21 02:04:31;;;;;;;2.30;2.00;;;;;;;21.96;41.58;101915.13;5031116;28;20070;-72
2024/03/21 02:06:57;;;;;;;1.95;1.85;;;;;;;21.94;41.56;101911.81;5025754;28;20037;-72
2024/03/21 02:09:25;;;;;;;2.50;2.20;;;;;;;21.93;41.53;101926.06;5029205;28;20094;-72
2024/03/21 02:11:51;;;;;;;2.42;2.05;;;;;;;21.96;41.26;101915.97;5019697;28;20045;-72
2024/03/21 02:14:19;;;;;;;2.25;1.90;;;;;;;21.94;41.65;101915.31;5021835;28;20120;-72
2024/03/21 02:16:45;;;;;;;1.90;1.80;;;;;;;21.94;41.34;101923.25;5022702;28;20061;-71
2024/03/21 02:19:11;;;;;;;2.10;1.90;;;;;;;21.94;41.49;101920.59;5030732;28;20048;-72
2024/03/21 02:24:21;;;;;;;1.80;1.70;;;;;;;21.93;41.49;101913.66;5023430;28;20041;-72
2024/03/21 02:26:46;;;;;;;2.17;1.95;;;;;;;21.88;41.41;101920.44;5028660;28;20386;-72
2024/03/21 02:29:12;;;;;;;2.10;1.90;;;;;;;21.92;41.66;101921.78;5026583;28;20060;-72
2024/03/21 02:31:38;;;;;;;2.67;2.30;;;;;;;21.90;41.38;101921.94;5021427;28;20042;-72
2024/03/21 02:34:03;;;;;;;2.13;2.00;;;;;;;21.89;41.78;101925.56;5022479;28;20055;-72
2024/03/21 02:36:29;;;;;;;3.40;2.13;;;;;;;21.88;41.41;101920.44;5028898;28;20037;-71
2024/03/21 02:38:55;;;;;;;2.08;1.90;;;;;;;21.87;41.55;101919.59;5032991;28;20057;-72
2024/03/21 02:41:20;;;;;;;2.20;1.90;;;;;;;21.87;41.72;101921.41;5022184;28;20049;-72
2024/03/21 02:43:46;;;;;;;2.08;1.88;;;;;;;21.84;41.84;101932.38;5029182;28;20041;-72
2024/03/21 02:46:11;;;;;;;1.73;1.63;;;;;;;21.88;41.72;101939.00;5020376;28;20053;-72
2024/03/21 02:48:37;;;;;;;2.40;2.00;;;;;;;21.84;41.59;101940.31;5029244;28;20058;-72
2024/03/21 02:51:02;;;;;;;2.10;1.90;;;;;;;21.87;41.40;101948.78;5022170;28;20041;-72
2024/03/21 02:53:28;;;;;;;1.92;1.83;;;;;;;21.84;41.39;101943.81;5023400;28;20100;-72
2024/03/21 02:55:53;;;;;;;2.17;1.98;;;;;;;21.85;41.50;101949.94;5023102;28;20033;-73
2024/03/21 02:58:19;;;;;;;2.42;2.22;;;;;;;21.80;41.69;101953.09;5021328;28;20045;-71
2024/03/21 03:00:44;;;;;;;2.25;2.03;;;;;;;21.81;41.53;101961.88;5018898;28;20045;-72
2024/03/21 03:03:10;;;;;;;1.83;1.73;;;;;;;21.81;41.37;101960.03;5031067;28;20046;-73
2024/03/21 03:05:45;;;;;;;2.42;1.95;;;;;;;21.81;41.74;101969.81;5023935;28;20095;-71
2024/03/21 03:08:10;;;;;;;2.10;1.90;;;;;;;21.78;41.83;101978.94;5020746;28;20306;-71
2024/03/21 03:10:36;;;;;;;1.88;1.77;;;;;;;21.80;41.77;101978.78;5006806;28;20412;-72
2024/03/21 03:13:02;;;;;;;1.73;1.63;;;;;;;21.69;41.70;101970.13;5032406;28;20187;-72
2024/03/21 03:15:28;;;;;;;1.90;1.80;;;;;;;21.79;41.74;101993.03;5025665;28;20045;-71
2024/03/21 03:17:53;;;;;;;2.00;1.83;;;;;;;21.78;41.36;101999.31;5032184;28;20464;-70
2024/03/21 03:20:19;;;;;;;1.85;1.67;;;;;;;21.74;41.32;101998.84;5025863;28;20044;-71
2024/03/21 03:22:44;;;;;;;1.90;1.75;;;;;;;21.73;41.64;102006.94;5030517;28;20453;-71
2024/03/21 03:25:10;;;;;;;2.13;1.92;;;;;;;21.65;41.20;102010.41;5030481;28;20103;-72
2024/03/21 03:27:35;;;;;;;1.77;1.67;;;;;;;21.72;41.35;102029.94;5028464;28;20037;-72
2024/03/21 03:30:01;;;;;;;1.70;1.60;;;;;;;21.72;41.70;102027.31;5030047;28;20040;-71
2024/03/21 03:32:30;;;;;;;1.77;1.67;;;;;;;21.73;41.39;102031.63;5025569;28;20053;-71
2024/03/21 03:37:40;;;;;;;1.95;1.60;;;;;;;21.74;41.28;102038.59;5015904;28;20049;-72
2024/03/21 03:40:09;;;;;;;1.77;1.67;;;;;;;21.70;41.13;102050.50;5025218;28;20030;-72
2024/03/21 03:42:35;;;;;;;1.85;1.75;;;;;;;21.68;41.41;102053.31;5025203;28;20060;-72
2024/03/21 03:45:00;;;;;;;2.08;1.70;;;;;;;21.71;41.15;102054.81;5032280;28;20079;-72
2024/03/21 03:47:26;;;;;;;2.08;1.70;;;;;;;21.68;41.53;102069.22;5009001;28;20033;-72
2024/03/21 03:49:51;;;;;;;1.90;1.65;;;;;;;21.69;40.98;102070.88;5026347;28;20053;-72
2024/03/21 03:52:17;;;;;;;1.60;1.50;;;;;;;21.71;41.40;102073.38;5021164;28;20541;-72
2024/03/21 03:54:42;;;;;;;1.75;1.50;;;;;;;21.64;41.42;102072.38;5024404;28;20052;-72
2024/03/21 03:57:08;;;;;;;1.88;1.70;;;;;;;21.68;41.17;102071.03;5024724;28;20052;-72
2024/03/21 03:59:33;;;;;;;2.03;1.83;;;;;;;21.65;41.13;102079.31;5020603;28;20126;-72
2024/03/21 04:01:59;;;;;;;1.85;1.75;;;;;;;21.66;41.26;102083.63;5019773;28;20044;-72
2024/03/21 04:04:25;;;;;;;1.88;1.58;;;;;;;21.59;41.15;102077.31;5017056;28;20044;-72
2024/03/21 04:06:52;;;;;;;1.90;1.50;;;;;;;21.58;41.47;102079.16;5020998;28;20073;-73
2024/03/21 04:09:20;;;;;;;2.38;1.70;;;;;;;21.57;41.25;102080.16;5025206;28;20450;-72
2024/03/21 04:11:46;;;;;;;2.10;1.70;;;;;;;21.60;40.99;102087.75;5026348;28;20051;-72
2024/03/21 04:14:11;;;;;;;1.80;1.58;;;;;;;21.57;41.42;102093.41;5025276;28;20037;-72
2024/03/21 04:16:37;;;;;;;1.58;1.48;;;;;;;21.59;41.44;102096.72;5025993;28;20338;-73
2024/03/21 04:19:02;;;;;;;1.98;1.48;;;;;;;21.59;41.21;102106.47;5021496;28;20045;-72
2024/03/21 04:21:28;;;;;;;1.73;1.63;;;;;;;21.60;41.17;102105.50;5023151;28;21270;-72
2024/03/21 04:23:53;;;;;;;1.70;1.60;;;;;;;21.58;41.27;102104.81;5024941;28;20045;-72
2024/03/21 04:26:19;;;;;;;1.40;1.30;;;;;;;21.55;40.87;102105.97;5028208;28;20037;-72
2024/03/21 04:28:44;;;;;;;2.80;1.80;;;;;;;21.53;41.23;102113.22;5026636;28;20041;-72
2024/03/21 04:31:10;;;;;;;1.60;1.50;;;;;;;21.54;41.14;102114.91;5025402;28;20038;-72
2024/03/21 04:33:35;;;;;;;1.60;1.50;;;;;;;21.52;40.87;102124.00;5019091;28;20049;-72
2024/03/21 04:36:01;;;;;;;2.42;1.73;;;;;;;21.52;41.32;102124.00;5021657;28;20037;-72
2024/03/21 04:38:26;;;;;;;1.83;1.60;;;;;;;21.49;41.27;102119.03;5021074;28;20053;-71
2024/03/21 04:40:52;;;;;;;1.73;1.60;;;;;;;21.51;41.22;102125.81;5028067;28;20042;-72
2024/03/21 04:43:17;;;;;;;1.90;1.40;;;;;;;21.54;41.06;102137.91;5021775;28;20052;-72
2024/03/21 04:45:43;;;;;;;2.83;1.70;;;;;;;21.48;41.06;102135.91;5023304;28;20045;-72
2024/03/21 04:48:09;;;;;;;1.92;1.63;;;;;;;21.46;41.05;102137.91;5028986;28;20063;-72
2024/03/21 04:50:34;;;;;;;2.35;1.83;;;;;;;21.52;41.09;102151.34;5019979;28;20060;-72
2024/03/21 04:53:00;;;;;;;1.42;1.33;;;;;;;21.53;40.88;102158.28;5025693;28;20068;-72
2024/03/21 04:55:26;;;;;;;1.95;1.50;;;;;;;21.48;40.95;102163.25;5025021;28;20041;-72
2024/03/21 04:57:51;;;;;;;2.20;1.40;;;;;;;21.46;40.92;102159.94;5018580;28;20057;-71
2024/03/21 05:00:17;;;;;;;1.42;1.33;;;;;;;21.45;41.14;102174.16;5024898;28;20382;-70
2024/03/21 05:02:42;;;;;;;2.33;1.50;;;;;;;21.45;40.90;102176.81;5022946;28;20107;-71
2024/03/21 05:05:09;;;;;;;2.55;1.67;;;;;;;21.42;40.89;102185.91;5020642;28;20124;-72
2024/03/21 05:07:35;;;;;;;1.55;1.45;;;;;;;21.44;41.12;102193.72;5023148;28;20045;-71
2024/03/21 05:10:00;;;;;;;3.10;1.95;;;;;;;21.44;40.91;102199.00;5025951;28;20045;-72
2024/03/21 05:12:27;;;;;;;2.90;1.42;;;;;;;21.41;40.86;102194.84;5020976;28;20369;-72
2024/03/21 05:14:53;;;;;;;1.85;1.50;;;;;;;21.42;40.90;102195.69;5022038;28;20542;-72
2024/03/21 05:17:20;;;;;;;1.38;1.27;;;;;;;21.40;41.09;102185.25;5021354;28;20026;-72
2024/03/21 05:19:46;;;;;;;1.67;1.20;;;;;;;21.42;40.75;102185.09;5020580;28;20044;-71
2024/03/21 05:22:12;;;;;;;2.40;1.60;;;;;;;21.40;41.01;102195.03;5019549;28;20484;-72
2024/03/21 05:24:37;;;;;;;1.48;1.38;;;;;;;21.39;40.99;102193.34;5021606;28;20037;-72
2024/03/21 05:27:04;;;;;;;2.15;1.60;;;;;;;21.35;41.13;102198.13;5015587;28;20045;-72
2024/03/21 05:29:30;;;;;;;3.33;1.33;;;;;;;21.38;40.94;102195.19;5023240;28;20052;-72
2024/03/21 05:31:55;;;;;;;3.10;1.45;;;;;;;21.25;40.92;102183.34;5019441;28;20491;-73
2024/03/21 05:34:21;;;;;;;2.33;1.60;;;;;;;21.35;41.01;102190.16;5020297;28;20133;-72
2024/03/21 05:36:46;;;;;;;2.08;1.27;;;;;;;21.38;40.86;102191.69;5022652;28;20046;-72
2024/03/21 05:39:12;;;;;;;2.08;1.63;;;;;;;21.36;40.91;102196.28;5022261;28;20545;-72
2024/03/21 05:41:38;;;;;;;2.42;1.45;;;;;;;21.35;41.01;102198.13;5029127;28;20053;-72
2024/03/21 05:44:03;;;;;;;1.75;1.48;;;;;;;21.32;40.64;102197.59;5031597;28;20045;-70
2024/03/21 05:46:29;;;;;;;1.48;1.25;;;;;;;21.33;40.72;102200.09;5031252;28;20120;-72
2024/03/21 05:48:56;;;;;;;2.08;1.65;;;;;;;21.32;40.79;102200.25;5033937;28;20461;-71
2024/03/21 05:51:22;;;;;;;1.88;1.30;;;;;;;21.30;40.94;102197.75;5031398;28;20462;-72
2024/03/21 05:53:47;;;;;;;1.67;1.20;;;;;;;21.30;40.89;102199.59;5028850;28;20040;-72
2024/03/21 05:56:17;;;;;;;1.70;1.20;;;;;;;21.28;40.72;102193.63;5029950;28;20033;-71
2024/03/21 05:58:43;;;;;;;1.65;1.35;;;;;;;21.28;40.69;102205.03;5022551;28;20091;-71
2024/03/21 06:03:43;;;;;;;1.30;1.20;;;;;;;21.31;41.04;102209.19;5023219;28;20393;-72
2024/03/21 06:06:08;;;;;;;2.35;1.50;;;;;;;21.30;41.08;102215.47;5027672;28;20088;-73
2024/03/21 06:08:34;;;;;;;2.15;1.42;;;;;;;21.31;40.70;102215.31;5031717;28;20371;-73
2024/03/21 06:11:00;;;;;;;1.30;1.05;;;;;;;21.28;40.77;102220.94;5020426;28;20034;-74
2024/03/21 06:13:25;;;;;;;1.70;1.40;;;;;;;21.29;40.64;102230.53;5022346;28;20045;-73
2024/03/21 06:15:51;;;;;;;1.50;1.30;;;;;;;21.30;40.97;102226.91;5028041;28;20053;-73
2024/03/21 06:18:17;;;;;;;1.15;1.10;;;;;;;21.28;41.01;102236.00;5032379;28;20037;-72
2024/03/21 06:20:43;;;;;;;1.95;1.25;;;;;;;21.27;40.73;102229.88;5019563;28;20258;-73
2024/03/21 06:23:08;;;;;;;1.77;1.08;;;;;;;21.28;40.98;102242.13;5023753;28;20340;-73
2024/03/21 06:25:36;;;;;;;1.83;1.33;;;;;;;21.25;40.86;102247.75;5026965;28;20045;-73
2024/03/21 06:28:02;;;;;;;1.65;1.08;;;;;;;21.05;41.13;102217.94;5055309;28;20029;-73
2024/03/21 06:30:27;;;;;;;1.55;1.20;;;;;;;21.26;41.00;102265.31;5024400;28;20489;-73
2024/03/21 06:32:53;;;;;;;1.55;1.35;;;;;;;21.26;40.81;102262.66;5020978;28;20052;-73
2024/03/21 06:35:19;;;;;;;1.98;1.30;;;;;;;21.27;40.80;102272.25;5024947;28;20394;-73
2024/03/21 06:37:49;;;;;;;2.03;1.13;;;;;;;21.20;40.90;102265.06;5026945;28;20041;-73
2024/03/21 06:40:16;;;;;;;1.30;1.20;;;;;;;21.23;40.76;102280.66;5026173;28;20033;-73
2024/03/21 06:42:42;;;;;;;1.25;1.15;;;;;;;21.23;40.98;102281.47;5020268;28;20537;-72
2024/03/21 06:45:08;;;;;;;1.50;1.40;;;;;;;21.26;40.81;102280.38;5025375;28;20038;-73
2024/03/21 06:47:33;;;;;;;1.63;1.52;;;;;;;21.27;40.71;102287.31;5020743;28;20053;-71
2024/03/21 06:49:59;;;;;;;2.58;1.60;;;;;;;21.22;41.06;102273.69;5033114;28;20033;-73
2024/03/21 06:52:24;;;;;;;3.47;1.55;;;;;;;21.18;40.98;102282.91;5025523;28;20041;-72
2024/03/21 06:54:50;;;;;;;2.10;1.40;;;;;;;21.23;40.90;102289.44;5034555;28;20090;-73
2024/03/21 06:57:16;;;;;;;1.42;1.17;;;;;;;21.24;40.80;102298.22;5028463;28;20028;-73
2024/03/21 06:59:41;;;;;;;1.05;0.95;;;;;;;21.21;40.95;102302.00;5027079;28;20045;-73
2024/03/21 07:02:08;;;;;;;1.65;1.35;;;;;;;21.15;40.92;102280.56;5024959;28;20155;-73
2024/03/21 07:04:33;;;;;;;1.83;1.23;;;;;;;21.21;41.05;102294.06;5021891;28;20105;-73
2024/03/21 07:06:59;;;;;;;2.40;1.48;;;;;;;21.23;40.81;102304.50;5031884;28;20064;-73
2024/03/21 07:09:24;;;;;;;1.67;1.08;;;;;;;21.13;40.91;102293.97;5028992;28;20096;-73
2024/03/21 07:11:50;;;;;;;1.77;1.30;;;;;;;21.22;41.06;102302.84;5058508;28;20044;-73
2024/03/21 07:14:16;;;;;;;1.40;1.00;;;;;;;21.24;40.98;102304.38;5022884;28;20049;-73
2024/03/21 07:16:41;;;;;;;1.30;1.20;;;;;;;21.19;40.82;102305.78;5026407;28;20092;-73
2024/03/21 07:19:07;;;;;;;1.15;1.05;;;;;;;21.21;40.69;102309.94;5026384;28;20091;-71
2024/03/21 07:21:34;;;;;;;1.35;1.20;;;;;;;21.22;40.88;102314.25;5027122;28;20064;-73
2024/03/21 07:24:00;;;;;;;0.95;0.95;;;;;;;21.23;40.60;102320.38;5026031;28;20037;-73
2024/03/21 07:26:26;;;;;;;2.50;1.73;;;;;;;21.20;40.80;102324.19;5023583;28;20056;-73
2024/03/21 07:28:51;;;;;;;1.20;1.10;;;;;;;21.22;40.82;102331.97;5024092;28;20050;-73
2024/03/21 07:31:17;;;;;;;2.08;1.15;;;;;;;21.21;41.06;102336.44;5024940;28;20029;-73
2024/03/21 07:33:43;;;;;;;1.85;1.30;;;;;;;21.13;40.55;102323.94;5026796;28;20051;-73
2024/03/21 07:36:09;;;;;;;1.70;1.23;;;;;;;21.19;40.98;102343.72;5023709;28;20618;-73
2024/03/21 07:38:34;;;;;;;1.25;1.00;;;;;;;21.18;40.92;102344.66;5021111;28;20127;-76
2024/03/21 07:41:01;;;;;;;1.40;1.30;;;;;;;21.06;40.62;102319.41;5018329;28;20075;-75
2024/03/21 07:43:27;;;;;;;1.67;1.48;;;;;;;21.23;40.90;102357.47;5021681;28;20048;-73
2024/03/21 07:45:53;;;;;;;1.95;1.50;;;;;;;21.14;41.08;102345.97;5024136;28;20546;-72
2024/03/21 07:48:19;;;;;;;1.58;1.20;;;;;;;21.21;40.77;102364.75;5019020;28;20033;-73
2024/03/21 07:50:44;;;;;;;2.28;1.63;;;;;;;21.32;40.58;102378.59;5030104;28;20037;-73
2024/03/21 07:53:11;;;;;;;1.98;1.45;;;;;;;21.48;40.44;102379.75;5025104;28;20053;-72
2024/03/21 07:55:37;;;;;;;2.13;1.10;;;;;;;21.59;40.36;102368.91;5026013;28;20041;-73
2024/03/21 07:58:05;;;;;;;2.00;1.20;;;;;;;21.59;40.07;102371.56;5025413;28;20049;-75
2024/03/21 08:00:30;;;;;;;3.40;1.40;;;;;;;21.70;40.66;102379.25;5020524;28;20060;-73
2024/03/21 08:02:56;;;;;;;1.80;1.10;;;;;;;21.71;40.35;102376.44;5020204;28;20041;-72
2024/03/21 08:05:22;;;;;;;1.65;1.40;;;;;;;21.68;40.42;102374.09;5025567;28;20069;-74
2024/03/21 08:07:47;;;;;;;2.20;1.00;;;;;;;21.60;40.41;102349.38;5023337;28;20033;-74
2024/03/21 08:10:13;;;;;;;1.33;1.17;;;;;;;21.53;40.56;102345.66;5020443;28;20041;-75
2024/03/21 08:12:39;;;;;;;1.98;1.02;;;;;;;21.67;40.52;102368.94;5025448;28;20068;-78
2024/03/21 08:15:05;;;;;;;1.83;1.60;;;;;;;21.63;40.81;102365.78;5019053;28;20046;-75
2024/03/21 08:17:32;;;;;;;1.13;1.02;;;;;;;21.61;40.71;102364.28;5020126;28;20053;-74
2024/03/21 08:20:00;;;;;;;1.20;1.10;;;;;;;21.62;40.48;102377.38;5026923;28;20045;-75
2024/03/21 08:22:26;;;;;;;2.08;1.48;;;;;;;21.61;40.49;102375.72;5018763;28;20032;-75
2024/03/21 08:24:51;;;;;;;1.30;1.20;;;;;;;21.60;40.52;102370.56;5023466;28;20061;-75
2024/03/21 08:27:19;;;;;;;1.55;1.33;;;;;;;21.62;40.88;102373.91;5019409;28;20041;-74
2024/03/21 08:29:46;;;;;;;1.35;1.10;;;;;;;21.48;40.61;102362.03;5024338;28;20125;-76
2024/03/21 08:32:12;;;;;;;2.42;1.40;;;;;;;21.58;40.73;102391.94;5022210;28;20036;-77
2024/03/21 08:34:39;;;;;;;2.30;1.50;;;;;;;21.62;40.65;102395.94;5017799;28;20103;-77
2024/03/21 08:37:04;;;;;;;1.65;1.30;;;;;;;21.60;40.89;102383.81;5022894;28;20063;-77
2024/03/21 08:39:30;;;;;;;1.70;1.15;;;;;;;21.60;40.80;102395.25;5022748;28;20489;-77
2024/03/21 08:41:55;;;;;;;1.50;1.40;;;;;;;21.51;40.72;102390.03;5021966;28;20041;-77
2024/03/21 08:44:21;;;;;;;1.65;1.38;;;;;;;21.59;40.68;102404.19;5007609;28;20049;-78
2024/03/21 08:46:46;;;;;;;2.03;1.30;;;;;;;21.59;40.39;102401.53;5023041;28;20038;-77
2024/03/21 08:49:13;;;;;;;3.10;1.40;;;;;;;21.59;40.62;102403.38;5025730;28;20040;-77
2024/03/21 08:51:39;;;;;;;2.40;1.50;;;;;;;21.60;40.52;102397.06;5024653;28;20109;-77
2024/03/21 08:54:06;;;;;;;1.23;1.00;;;;;;;21.58;40.47;102399.88;5019947;28;20041;-78
2024/03/21 08:56:33;;;;;;;1.30;1.20;;;;;;;21.57;40.54;102406.19;5024631;28;20045;-78
2024/03/21 08:58:59;;;;;;;2.17;1.40;;;;;;;21.58;40.62;102412.31;5023857;28;20053;-78
2024/03/21 09:01:24;;;;;;;1.60;1.50;;;;;;;21.57;40.89;102421.25;5021703;28;20076;-79
2024/03/21 09:03:50;;;;;;;2.88;1.60;;;;;;;21.57;40.34;102427.38;5020645;28;20042;-77
2024/03/21 09:06:15;;;;;;;1.38;1.27;;;;;;;21.57;40.48;102423.91;5021768;28;20382;-75
2024/03/21 09:08:41;;;;;;;2.78;1.45;;;;;;;21.68;40.05;102428.94;4987462;28;20053;-75
2024/03/21 09:11:06;;;;;;;3.33;1.40;;;;;;;21.77;39.29;102446.59;5013283;28;20128;-74
2024/03/21 09:13:32;;;;;;;2.55;1.20;;;;;;;21.81;39.20;102444.47;5029837;28;20053;-75
2024/03/21 09:15:58;;;;;;;1.73;1.30;;;;;;;21.88;38.93;102456.94;5025738;28;20483;-73
2024/03/21 09:18:23;;;;;;;2.85;1.50;;;;;;;21.93;38.98;102457.34;5026891;28;21027;-74
2024/03/21 09:20:51;;;;;;;2.42;1.33;;;;;;;21.93;39.00;102467.94;5022994;28;20037;-76
2024/03/21 09:23:16;;;;;;;3.03;1.38;;;;;;;21.89;38.94;102452.47;5023944;28;20044;-79
2024/03/21 09:25:42;;;;;;;2.55;1.50;;;;;;;22.02;38.66;102476.78;4988532;28;20033;-73
2024/03/21 09:28:07;;;;;;;3.17;1.58;;;;;;;22.04;38.63;102472.16;5021972;28;20045;-73
2024/03/21 09:30:33;;;;;;;2.97;1.30;;;;;;;22.06;38.69;102474.69;4994115;28;20107;-76
2024/03/21 09:32:58;;;;;;;2.60;1.42;;;;;;;22.07;38.78;102471.88;5015034;28;20053;-75
2024/03/21 09:35:24;;;;;;;2.40;1.50;;;;;;;22.09;38.50;102479.69;5025929;28;20045;-75
2024/03/21 09:37:50;;;;;;;2.85;1.92;;;;;;;22.10;38.57;102476.06;5027190;28;20061;-72
2024/03/21 09:40:17;;;;;;;1.63;1.02;;;;;;;22.09;38.38;102475.22;4979106;28;20136;-72
2024/03/21 09:42:43;;;;;;;2.75;1.60;;;;;;;22.13;38.05;102486.34;5025357;28;20128;-74
2024/03/21 09:45:12;;;;;;;3.08;1.50;;;;;;;22.16;38.31;102486.03;4984364;28;20041;-75
2024/03/21 09:47:39;;;;;;;2.90;1.52;;;;;;;22.07;38.26;102473.69;5023950;28;20069;-75
2024/03/21 09:50:08;;;;;;;1.33;1.23;;;;;;;22.18;38.02;102492.03;4976798;28;20063;-76
2024/03/21 09:52:34;;;;;;;2.15;1.10;;;;;;;22.18;38.11;102490.19;5012374;28;20051;-76
2024/03/21 09:55:00;;;;;;;3.63;1.70;;;;;;;22.20;37.90;102490.88;5026753;28;20049;-74
2024/03/21 09:57:25;;;;;;;2.05;1.25;;;;;;;22.21;37.88;102492.53;4986351;28;20056;-74
2024/03/21 09:59:51;;;;;;;1.95;1.15;;;;;;;21.92;37.83;102447.72;5008390;28;20048;-79
2024/03/21 10:02:18;;;;;;;1.70;1.27;;;;;;;22.19;38.07;102486.56;4975666;28;20033;-76
2024/03/21 10:04:46;;;;;;;1.45;1.23;;;;;;;22.21;37.96;102481.94;5022902;28;20373;-78
2024/03/21 10:07:22;;;;;;;1.95;1.05;;;;;;;22.28;37.91;102492.78;4989842;28;20141;-78
2024/03/21 10:09:54;;;;;;;2.30;1.10;;;;;;;22.29;37.74;102482.00;5026215;28;20080;-77
2024/03/21 10:12:19;;;;;;;2.58;1.35;;;;;;;22.29;38.09;102489.13;4989032;28;20100;-71
2024/03/21 10:14:46;;;;;;;2.63;1.60;;;;;;;22.25;38.22;102482.44;5020256;28;20041;-74
2024/03/21 10:17:12;;;;;;;3.10;1.80;;;;;;;22.25;38.12;102487.75;5010937;28;20076;-75
2024/03/21 10:19:38;;;;;;;2.55;1.50;;;;;;;22.27;38.19;102486.63;5025614;28;20038;-73
2024/03/21 10:22:03;;;;;;;1.67;1.40;;;;;;;22.29;37.92;102495.25;4991625;28;20111;-73
2024/03/21 10:24:30;;;;;;;2.67;1.35;;;;;;;22.20;38.14;102474.94;5025020;28;20052;-76
2024/03/21 10:26:56;;;;;;;3.40;1.40;;;;;;;22.23;37.76;102479.94;4981443;28;20033;-74
2024/03/21 10:29:23;;;;;;;2.22;1.40;;;;;;;22.29;37.97;102489.13;5024519;28;20698;-75
2024/03/21 10:31:49;;;;;;;1.83;1.30;;;;;;;22.32;37.90;102486.16;4979413;28;20103;-74
2024/03/21 10:34:19;;;;;;;1.92;1.40;;;;;;;22.33;38.15;102492.28;5023885;28;20227;-75
2024/03/21 10:36:46;;;;;;;4.45;1.63;;;;;;;22.34;37.88;102502.75;4982140;28;20111;-73
2024/03/21 10:39:12;;;;;;;2.42;1.27;;;;;;;22.35;38.06;102496.44;5026773;28;20049;-73
2024/03/21 10:41:40;;;;;;;2.70;1.52;;;;;;;22.34;37.59;102486.81;4977340;28;20049;-74
2024/03/21 10:44:08;;;;;;;2.28;1.67;;;;;;;22.37;37.92;102491.81;5023398;28;20475;-75
2024/03/21 10:46:38;;;;;;;2.10;1.30;;;;;;;22.39;37.58;102487.19;4984255;28;20747;-72
2024/03/21 10:49:03;;;;;;;;;;;;;;;22.39;37.71;102499.63;5027534;28;20498;-74
2024/03/21 10:51:29;;;;;;;2.67;1.48;;;;;;;22.37;38.00;102498.94;4986051;28;20499;-75
2024/03/21 10:54:01;;;;;;;2.83;1.65;;;;;;;22.38;37.53;102501.44;5022763;28;20049;-73
2024/03/21 10:56:38;;;;;;;2.88;1.42;;;;;;;22.41;37.93;102506.44;4976252;28;20457;-76
2024/03/21 10:59:04;;;;;;;2.13;1.33;;;;;;;22.39;38.01;102519.03;5014697;28;20041;-81
2024/03/21 11:01:34;;;;;;;3.15;1.27;;;;;;;22.39;37.94;102523.50;5020419;28;20448;-73
2024/03/21 11:04:10;;;;;;;2.88;1.58;;;;;;;22.38;37.61;102525.34;4979606;28;20467;-73
2024/03/21 11:06:41;;;;;;;4.00;1.60;;;;;;;22.41;37.63;102529.50;5021783;28;20045;-73
2024/03/21 11:09:08;;;;;;;3.22;1.63;;;;;;;22.41;37.92;102532.16;4983156;28;20052;-80
2024/03/21 11:11:34;;;;;;;2.05;1.38;;;;;;;22.43;37.62;102530.16;5019193;28;20257;-78
2024/03/21 11:14:01;;;;;;;1.98;1.48;;;;;;;22.44;37.65;102532.69;4984585;28;20021;-73
2024/03/21 11:16:28;;;;;;;2.75;1.70;;;;;;;22.45;37.71;102526.38;5026270;28;20045;-73
2024/03/21 11:18:55;;;;;;;1.20;1.10;;;;;;;22.45;37.61;102539.66;4979344;28;20552;-71
2024/03/21 11:21:21;;;;;;;2.13;1.13;;;;;;;22.45;37.71;102537.00;5024008;28;20036;-76
2024/03/21 11:23:48;;;;;;;2.15;1.23;;;;;;;22.46;37.52;102535.19;5012111;28;20697;-72
2024/03/21 11:26:16;;;;;;;2.17;1.27;;;;;;;22.45;37.46;102537.00;5023023;28;20048;-78